sensor_id;sensor_type;location;lat;lon;timestamp;temperature;humidity
32107;DHT22;18622;51.998;10.440;2022-12-08T03:17:05;4.00;99.90
32107;DHT22;18622;51.998;10.440;2022-12-08T03:19:36;4.00;99.90
32107;DHT22;18622;51.998;10.440;2022-12-08T03:22:05;4.00;99.90
32107;DHT22;18622;51.998;10.440;2022-12-08T03:24:38;4.00;99.90
32107;DHT22;18622;51.998;10.440;2022-12-08T03:27:15;4.00;99.90
32107;DHT22;18622;51.998;10.440;2022-12-08T03:32:35;3.90;99.90
32107;DHT22;18622;51.998;10.440;2022-12-08T03:35:07;3.90;99.90
32107;DHT22;18622;51.998;10.440;2022-12-08T03:37:38;4.00;99.90
32107;DHT22;18622;51.998;10.440;2022-12-08T03:40:08;4.00;99.90
32107;DHT22;18622;51.998;10.440;2022-12-08T03:42:36;4.00;99.90
32107;DHT22;18622;51.998;10.440;2022-12-08T03:45:05;4.00;99.90
32107;DHT22;18622;51.998;10.440;2022-12-08T03:47:32;4.10;99.90
32107;DHT22;18622;51.998;10.440;2022-12-08T03:50:00;4.10;99.90
32107;DHT22;18622;51.998;10.440;2022-12-08T03:52:28;4.10;99.90
32107;DHT22;18622;51.998;10.440;2022-12-08T03:54:55;4.10;99.90
32107;DHT22;18622;51.998;10.440;2022-12-08T03:57:23;4.20;99.90
32107;DHT22;18622;51.998;10.440;2022-12-08T03:59:51;4.20;99.90
32107;DHT22;18622;51.998;10.440;2022-12-08T04:30:55;5.10;99.90
32107;DHT22;18622;51.998;10.440;2022-12-08T04:33:23;5.10;99.90
32107;DHT22;18622;51.998;10.440;2022-12-08T04:35:51;5.10;99.90
32107;DHT22;18622;51.998;10.440;2022-12-08T04:38:18;5.10;99.90
32107;DHT22;18622;51.998;10.440;2022-12-08T04:40:46;5.10;99.90
32107;DHT22;18622;51.998;10.440;2022-12-08T04:43:15;5.20;99.90
32107;DHT22;18622;51.998;10.440;2022-12-08T04:45:42;5.20;99.90
32107;DHT22;18622;51.998;10.440;2022-12-08T04:48:10;5.20;99.90
32107;DHT22;18622;51.998;10.440;2022-12-08T04:50:43;5.20;99.90
32107;DHT22;18622;51.998;10.440;2022-12-08T04:53:12;5.30;99.90
32107;DHT22;18622;51.998;10.440;2022-12-08T04:55:41;5.30;99.90
32107;DHT22;18622;51.998;10.440;2022-12-08T04:58:13;5.30;99.90
32107;DHT22;18622;51.998;10.440;2022-12-08T05:00:41;5.30;99.90
32107;DHT22;18622;51.998;10.440;2022-12-08T05:03:09;5.30;99.90
32107;DHT22;18622;51.998;10.440;2022-12-08T05:05:37;5.30;99.90
32107;DHT22;18622;51.998;10.440;2022-12-08T05:08:06;5.20;99.90
32107;DHT22;18622;51.998;10.440;2022-12-08T05:10:34;5.20;99.90
32107;DHT22;18622;51.998;10.440;2022-12-08T05:13:02;5.20;99.90
32107;DHT22;18622;51.998;10.440;2022-12-08T05:15:30;5.10;99.90
32107;DHT22;18622;51.998;10.440;2022-12-08T05:17:58;5.10;99.90
32107;DHT22;18622;51.998;10.440;2022-12-08T05:20:27;5.10;99.90
32107;DHT22;18622;51.998;10.440;2022-12-08T05:22:54;5.10;99.90
32107;DHT22;18622;51.998;10.440;2022-12-08T05:25:22;5.00;99.90
32107;DHT22;18622;51.998;10.440;2022-12-08T05:27:50;5.00;99.90
32107;DHT22;18622;51.998;10.440;2022-12-08T05:30:18;5.00;99.90
32107;DHT22;18622;51.998;10.440;2022-12-08T05:32:46;5.00;99.90
32107;DHT22;18622;51.998;10.440;2022-12-08T05:35:13;5.00;99.90
32107;DHT22;18622;51.998;10.440;2022-12-08T05:37:41;5.00;99.90
32107;DHT22;18622;51.998;10.440;2022-12-08T05:40:09;5.10;99.90
32107;DHT22;18622;51.998;10.440;2022-12-08T05:42:37;5.10;99.90
32107;DHT22;18622;51.998;10.440;2022-12-08T05:47:34;5.00;99.90
32107;DHT22;18622;51.998;10.440;2022-12-08T05:50:02;5.00;99.90
32107;DHT22;18622;51.998;10.440;2022-12-08T05:52:31;5.00;99.90
32107;DHT22;18622;51.998;10.440;2022-12-08T05:54:58;5.00;99.90
32107;DHT22;18622;51.998;10.440;2022-12-08T05:57:26;5.00;99.90
32107;DHT22;18622;51.998;10.440;2022-12-08T05:59:54;5.00;99.90
32107;DHT22;18622;51.998;10.440;2022-12-08T06:02:24;5.00;99.90
32107;DHT22;18622;51.998;10.440;2022-12-08T06:04:51;5.00;99.90
32107;DHT22;18622;51.998;10.440;2022-12-08T06:07:19;5.00;99.90
32107;DHT22;18622;51.998;10.440;2022-12-08T06:09:47;5.00;99.90
32107;DHT22;18622;51.998;10.440;2022-12-08T06:12:15;5.00;99.90
32107;DHT22;18622;51.998;10.440;2022-12-08T06:14:43;5.00;99.90
32107;DHT22;18622;51.998;10.440;2022-12-08T06:17:11;5.00;99.90
32107;DHT22;18622;51.998;10.440;2022-12-08T06:19:38;5.00;99.90
32107;DHT22;18622;51.998;10.440;2022-12-08T06:22:06;5.00;99.90
32107;DHT22;18622;51.998;10.440;2022-12-08T06:24:34;5.00;99.90
32107;DHT22;18622;51.998;10.440;2022-12-08T06:27:02;5.00;99.90
32107;DHT22;18622;51.998;10.440;2022-12-08T06:29:30;5.00;99.90
32107;DHT22;18622;51.998;10.440;2022-12-08T10:00:29;5.50;99.90
32107;DHT22;18622;51.998;10.440;2022-12-08T10:02:57;5.50;99.90
32107;DHT22;18622;51.998;10.440;2022-12-08T10:05:26;5.50;99.90
32107;DHT22;18622;51.998;10.440;2022-12-08T10:08:06;5.40;99.90
32107;DHT22;18622;51.998;10.440;2022-12-08T10:18:36;5.40;99.90
32107;DHT22;18622;51.998;10.440;2022-12-08T10:21:15;5.40;99.90
32107;DHT22;18622;51.998;10.440;2022-12-08T10:23:51;5.40;99.90
32107;DHT22;18622;51.998;10.440;2022-12-08T10:26:18;5.40;99.90
32107;DHT22;18622;51.998;10.440;2022-12-08T10:28:46;5.40;99.90
32107;DHT22;18622;51.998;10.440;2022-12-08T10:31:18;5.40;99.90
32107;DHT22;18622;51.998;10.440;2022-12-08T10:33:50;5.30;99.90
32107;DHT22;18622;51.998;10.440;2022-12-08T10:36:15;5.30;99.90
32107;DHT22;18622;51.998;10.440;2022-12-08T10:38:43;5.30;99.90
32107;DHT22;18622;51.998;10.440;2022-12-08T10:41:13;5.30;99.90
32107;DHT22;18622;51.998;10.440;2022-12-08T10:43:53;5.20;99.90
32107;DHT22;18622;51.998;10.440;2022-12-08T10:46:22;5.20;99.90
32107;DHT22;18622;51.998;10.440;2022-12-08T10:51:41;5.10;99.90
32107;DHT22;18622;51.998;10.440;2022-12-08T10:54:28;5.10;99.90
32107;DHT22;18622;51.998;10.440;2022-12-08T10:56:54;5.10;99.90
32107;DHT22;18622;51.998;10.440;2022-12-08T10:59:22;5.20;99.90
32107;DHT22;18622;51.998;10.440;2022-12-08T11:01:56;5.20;99.90
32107;DHT22;18622;51.998;10.440;2022-12-08T11:04:34;5.20;99.90
32107;DHT22;18622;51.998;10.440;2022-12-08T11:07:08;5.20;99.90
32107;DHT22;18622;51.998;10.440;2022-12-08T11:09:47;5.30;99.90
32107;DHT22;18622;51.998;10.440;2022-12-08T11:12:22;5.30;99.90
32107;DHT22;18622;51.998;10.440;2022-12-08T11:14:49;5.30;99.90
32107;DHT22;18622;51.998;10.440;2022-12-08T11:17:22;5.30;99.90
32107;DHT22;18622;51.998;10.440;2022-12-08T11:22:30;5.40;99.90
32107;DHT22;18622;51.998;10.440;2022-12-08T11:27:41;5.30;99.90
32107;DHT22;18622;51.998;10.440;2022-12-08T11:30:21;5.30;99.90
32107;DHT22;18622;51.998;10.440;2022-12-08T11:32:54;5.40;99.90
32107;DHT22;18622;51.998;10.440;2022-12-08T11:35:26;5.40;99.90
32107;DHT22;18622;51.998;10.440;2022-12-08T11:37:56;5.40;99.90
32107;DHT22;18622;51.998;10.440;2022-12-08T11:40:29;5.40;99.90
32107;DHT22;18622;51.998;10.440;2022-12-08T11:43:19;5.40;99.90
32107;DHT22;18622;51.998;10.440;2022-12-08T11:45:49;5.40;99.90
32107;DHT22;18622;51.998;10.440;2022-12-08T11:51:07;5.30;99.90
32107;DHT22;18622;51.998;10.440;2022-12-08T11:53:46;5.40;99.90
32107;DHT22;18622;51.998;10.440;2022-12-08T11:56:12;5.40;99.90
32107;DHT22;18622;51.998;10.440;2022-12-08T11:58:47;5.40;99.90
32107;DHT22;18622;51.998;10.440;2022-12-08T16:00:54;4.20;99.90
32107;DHT22;18622;51.998;10.440;2022-12-08T16:03:27;4.10;99.90
32107;DHT22;18622;51.998;10.440;2022-12-08T16:05:56;4.20;99.90
32107;DHT22;18622;51.998;10.440;2022-12-08T16:08:26;4.20;99.90
32107;DHT22;18622;51.998;10.440;2022-12-08T16:10:56;4.20;99.90
32107;DHT22;18622;51.998;10.440;2022-12-08T16:13:25;4.20;99.90
32107;DHT22;18622;51.998;10.440;2022-12-08T16:16:12;4.20;99.90
32107;DHT22;18622;51.998;10.440;2022-12-08T16:18:42;4.30;99.90
32107;DHT22;18622;51.998;10.440;2022-12-08T16:21:10;4.30;99.90
32107;DHT22;18622;51.998;10.440;2022-12-08T16:23:38;4.30;99.90
32107;DHT22;18622;51.998;10.440;2022-12-08T16:26:09;4.30;99.90
32107;DHT22;18622;51.998;10.440;2022-12-08T16:28:35;4.30;99.90
32107;DHT22;18622;51.998;10.440;2022-12-08T16:31:03;4.40;99.90
32107;DHT22;18622;51.998;10.440;2022-12-08T16:33:31;4.40;99.90
32107;DHT22;18622;51.998;10.440;2022-12-08T16:35:59;4.40;99.90
32107;DHT22;18622;51.998;10.440;2022-12-08T16:38:27;4.40;99.90
32107;DHT22;18622;51.998;10.440;2022-12-08T16:40:55;4.40;99.90
32107;DHT22;18622;51.998;10.440;2022-12-08T16:43:40;4.30;99.90
32107;DHT22;18622;51.998;10.440;2022-12-08T16:46:16;4.30;99.90
32107;DHT22;18622;51.998;10.440;2022-12-08T16:48:45;4.30;99.90
32107;DHT22;18622;51.998;10.440;2022-12-08T16:51:17;4.20;99.90
32107;DHT22;18622;51.998;10.440;2022-12-08T16:53:45;4.20;99.90
32107;DHT22;18622;51.998;10.440;2022-12-08T16:56:16;4.20;99.90
32107;DHT22;18622;51.998;10.440;2022-12-08T16:58:45;4.20;99.90
32107;DHT22;18622;51.998;10.440;2022-12-08T17:01:14;4.20;99.90
32107;DHT22;18622;51.998;10.440;2022-12-08T17:03:43;4.20;99.90
32107;DHT22;18622;51.998;10.440;2022-12-08T17:06:14;4.30;99.90
32107;DHT22;18622;51.998;10.440;2022-12-08T17:08:42;4.30;99.90
32107;DHT22;18622;51.998;10.440;2022-12-08T17:11:22;4.30;99.90
32107;DHT22;18622;51.998;10.440;2022-12-08T17:13:49;4.30;99.90
32107;DHT22;18622;51.998;10.440;2022-12-08T17:16:18;4.30;99.90
32107;DHT22;18622;51.998;10.440;2022-12-08T17:18:47;4.30;99.90
32107;DHT22;18622;51.998;10.440;2022-12-08T17:21:16;4.30;99.90
32107;DHT22;18622;51.998;10.440;2022-12-08T17:23:44;4.30;99.90
32107;DHT22;18622;51.998;10.440;2022-12-08T17:26:13;4.30;99.90
32107;DHT22;18622;51.998;10.440;2022-12-08T17:28:41;4.30;99.90
32107;DHT22;18622;51.998;10.440;2022-12-08T17:31:13;4.40;99.90
32107;DHT22;18622;51.998;10.440;2022-12-08T17:33:42;4.40;99.90
32107;DHT22;18622;51.998;10.440;2022-12-08T17:36:15;4.40;99.90
32107;DHT22;18622;51.998;10.440;2022-12-08T17:38:43;4.40;99.90
32107;DHT22;18622;51.998;10.440;2022-12-08T17:41:11;4.40;99.90
32107;DHT22;18622;51.998;10.440;2022-12-08T17:43:39;4.30;99.90
32107;DHT22;18622;51.998;10.440;2022-12-08T17:46:07;4.30;99.90
32107;DHT22;18622;51.998;10.440;2022-12-08T17:48:35;4.30;99.90
32107;DHT22;18622;51.998;10.440;2022-12-08T17:51:02;4.30;99.90
32107;DHT22;18622;51.998;10.440;2022-12-08T17:53:31;4.20;99.90
32107;DHT22;18622;51.998;10.440;2022-12-08T17:55:59;4.20;99.90
32107;DHT22;18622;51.998;10.440;2022-12-08T17:58:27;4.20;99.90
32107;DHT22;18622;51.998;10.440;2022-12-08T18:00:55;4.20;99.90
32107;DHT22;18622;51.998;10.440;2022-12-08T18:03:23;4.20;99.90
32107;DHT22;18622;51.998;10.440;2022-12-08T18:05:50;4.20;99.90
32107;DHT22;18622;51.998;10.440;2022-12-08T18:08:18;4.20;99.90
32107;DHT22;18622;51.998;10.440;2022-12-08T18:10:46;4.10;99.90
32107;DHT22;18622;51.998;10.440;2022-12-08T18:13:14;4.10;99.90
32107;DHT22;18622;51.998;10.440;2022-12-08T18:15:42;4.00;99.90
32107;DHT22;18622;51.998;10.440;2022-12-08T18:18:09;4.00;99.90
32107;DHT22;18622;51.998;10.440;2022-12-08T18:20:37;4.00;99.90
32107;DHT22;18622;51.998;10.440;2022-12-08T18:23:05;3.90;99.90
32107;DHT22;18622;51.998;10.440;2022-12-08T18:25:33;3.90;99.90
32107;DHT22;18622;51.998;10.440;2022-12-08T18:28:01;3.80;99.90
32107;DHT22;18622;51.998;10.440;2022-12-08T18:30:28;3.80;99.90
32107;DHT22;18622;51.998;10.440;2022-12-08T18:32:56;3.80;99.90
32107;DHT22;18622;51.998;10.440;2022-12-08T18:35:24;3.80;99.90
32107;DHT22;18622;51.998;10.440;2022-12-08T18:37:53;3.70;99.90
32107;DHT22;18622;51.998;10.440;2022-12-08T18:40:20;3.70;99.90
32107;DHT22;18622;51.998;10.440;2022-12-08T18:42:49;3.70;99.90
32107;DHT22;18622;51.998;10.440;2022-12-08T18:45:17;3.70;99.90
32107;DHT22;18622;51.998;10.440;2022-12-08T18:47:46;3.70;99.90
32107;DHT22;18622;51.998;10.440;2022-12-08T18:50:15;3.70;99.90
32107;DHT22;18622;51.998;10.440;2022-12-08T18:52:44;3.70;99.90
32107;DHT22;18622;51.998;10.440;2022-12-08T18:55:12;3.80;99.90
32107;DHT22;18622;51.998;10.440;2022-12-08T18:57:41;3.80;99.90
32107;DHT22;18622;51.998;10.440;2022-12-08T19:00:11;3.80;99.90
32107;DHT22;18622;51.998;10.440;2022-12-08T19:02:39;3.80;99.90
32107;DHT22;18622;51.998;10.440;2022-12-08T19:05:10;3.90;99.90
32107;DHT22;18622;51.998;10.440;2022-12-08T19:07:37;3.90;99.90
32107;DHT22;18622;51.998;10.440;2022-12-08T19:10:06;3.90;99.90
32107;DHT22;18622;51.998;10.440;2022-12-08T19:12:34;3.90;99.90
32107;DHT22;18622;51.998;10.440;2022-12-08T19:15:01;3.90;99.90
32107;DHT22;18622;51.998;10.440;2022-12-08T19:17:29;3.90;99.90
32107;DHT22;18622;51.998;10.440;2022-12-08T19:19:57;3.80;99.90
32107;DHT22;18622;51.998;10.440;2022-12-08T19:22:25;3.80;99.90
32107;DHT22;18622;51.998;10.440;2022-12-08T19:24:53;3.80;99.90
32107;DHT22;18622;51.998;10.440;2022-12-08T19:27:21;3.80;99.90
32107;DHT22;18622;51.998;10.440;2022-12-08T19:29:49;3.80;99.90
32107;DHT22;18622;51.998;10.440;2022-12-08T19:32:17;3.80;99.90
32107;DHT22;18622;51.998;10.440;2022-12-08T19:34:44;3.70;99.90
32107;DHT22;18622;51.998;10.440;2022-12-08T19:37:12;3.70;99.90
32107;DHT22;18622;51.998;10.440;2022-12-08T19:39:41;3.70;99.90
32107;DHT22;18622;51.998;10.440;2022-12-08T19:42:26;3.70;99.90
32107;DHT22;18622;51.998;10.440;2022-12-08T19:45:19;3.70;99.90
32107;DHT22;18622;51.998;10.440;2022-12-08T19:47:47;3.70;99.90
32107;DHT22;18622;51.998;10.440;2022-12-08T19:50:16;3.70;99.90
32107;DHT22;18622;51.998;10.440;2022-12-08T19:53:09;3.70;99.90
32107;DHT22;18622;51.998;10.440;2022-12-08T19:55:38;3.70;99.90
32107;DHT22;18622;51.998;10.440;2022-12-08T19:58:07;3.70;99.90
32107;DHT22;18622;51.998;10.440;2022-12-08T20:00:35;3.70;99.90
32107;DHT22;18622;51.998;10.440;2022-12-08T20:03:04;3.70;99.90
32107;DHT22;18622;51.998;10.440;2022-12-08T20:05:33;3.70;99.90
32107;DHT22;18622;51.998;10.440;2022-12-08T20:08:02;3.70;99.90
32107;DHT22;18622;51.998;10.440;2022-12-08T20:10:37;3.70;99.90
32107;DHT22;18622;51.998;10.440;2022-12-08T20:13:01;3.70;99.90
32107;DHT22;18622;51.998;10.440;2022-12-08T20:15:47;3.70;99.90
32107;DHT22;18622;51.998;10.440;2022-12-08T20:18:15;3.70;99.90
32107;DHT22;18622;51.998;10.440;2022-12-08T20:20:44;3.70;99.90
32107;DHT22;18622;51.998;10.440;2022-12-08T20:23:13;3.70;99.90
32107;DHT22;18622;51.998;10.440;2022-12-08T20:25:42;3.80;99.90
32107;DHT22;18622;51.998;10.440;2022-12-08T20:28:10;3.80;99.90
32107;DHT22;18622;51.998;10.440;2022-12-08T20:30:40;3.80;99.90
32107;DHT22;18622;51.998;10.440;2022-12-08T20:33:11;3.70;99.90
32107;DHT22;18622;51.998;10.440;2022-12-08T20:35:38;3.70;99.90
32107;DHT22;18622;51.998;10.440;2022-12-08T20:38:06;3.70;99.90
32107;DHT22;18622;51.998;10.440;2022-12-08T20:40:34;3.70;99.90
32107;DHT22;18622;51.998;10.440;2022-12-08T20:43:01;3.70;99.90
32107;DHT22;18622;51.998;10.440;2022-12-08T20:45:29;3.60;99.90
32107;DHT22;18622;51.998;10.440;2022-12-08T20:47:57;3.50;99.90
32107;DHT22;18622;51.998;10.440;2022-12-08T20:50:25;3.40;99.90
32107;DHT22;18622;51.998;10.440;2022-12-08T20:52:53;3.40;99.90
32107;DHT22;18622;51.998;10.440;2022-12-08T20:55:21;3.30;99.90
32107;DHT22;18622;51.998;10.440;2022-12-08T20:57:49;3.20;99.90
32107;DHT22;18622;51.998;10.440;2022-12-08T21:00:17;3.20;99.90
32107;DHT22;18622;51.998;10.440;2022-12-08T21:02:46;3.10;99.90
32107;DHT22;18622;51.998;10.440;2022-12-08T21:05:15;3.00;99.90
32107;DHT22;18622;51.998;10.440;2022-12-08T21:07:43;2.90;99.90
32107;DHT22;18622;51.998;10.440;2022-12-08T21:10:11;2.80;99.90
32107;DHT22;18622;51.998;10.440;2022-12-08T21:12:39;2.70;99.90
32107;DHT22;18622;51.998;10.440;2022-12-08T21:15:08;2.70;99.90
32107;DHT22;18622;51.998;10.440;2022-12-08T21:17:37;2.60;99.90
32107;DHT22;18622;51.998;10.440;2022-12-08T21:20:06;2.50;99.90
32107;DHT22;18622;51.998;10.440;2022-12-08T21:22:33;2.50;99.90
32107;DHT22;18622;51.998;10.440;2022-12-08T21:25:01;2.40;99.90
32107;DHT22;18622;51.998;10.440;2022-12-08T21:27:29;2.30;99.90
32107;DHT22;18622;51.998;10.440;2022-12-08T21:29:57;2.30;99.90
32107;DHT22;18622;51.998;10.440;2022-12-08T21:32:24;2.20;99.90
32107;DHT22;18622;51.998;10.440;2022-12-08T21:34:52;2.20;99.90
32107;DHT22;18622;51.998;10.440;2022-12-08T21:37:20;2.10;99.90
32107;DHT22;18622;51.998;10.440;2022-12-08T21:39:48;2.10;99.90
32107;DHT22;18622;51.998;10.440;2022-12-08T21:42:16;2.10;99.90
32107;DHT22;18622;51.998;10.440;2022-12-08T21:45:01;2.10;99.90
32107;DHT22;18622;51.998;10.440;2022-12-08T21:47:29;2.00;99.90
32107;DHT22;18622;51.998;10.440;2022-12-08T21:49:57;2.00;99.90
32107;DHT22;18622;51.998;10.440;2022-12-08T21:52:25;2.00;99.90
32107;DHT22;18622;51.998;10.440;2022-12-08T21:54:53;2.00;99.90
32107;DHT22;18622;51.998;10.440;2022-12-08T21:57:21;1.90;99.90
32107;DHT22;18622;51.998;10.440;2022-12-08T21:59:49;1.90;99.90
